Terminal Aerodrome Forecast
Issued by NWS

Home | Current Version | Previous Version | Graphics & Text | Print | Product List | Glossary On
Versions: 1 2 3 4 5 6 7 8 9 10 11 12 13
000
FTUS45 KGGW 190520
TAFGDV
TAF
KGDV 190520Z 1906/2006 02006KT P6SM VCSH BKN070
     FM190900 01006KT P6SM SCT060
     FM191300 04007KT P6SM BKN080
     FM191700 07009KT P6SM SCT120
     FM200400 10005KT P6SM FEW120=

USA.gov is the U.S. government's official web portal to all federal, state and local government web resources and services.